createdAt,value
2023-04-11T00:00:54.695Z,5.32
2023-04-11T00:03:22.619Z,5.07
2023-04-11T00:05:49.875Z,6.07
2023-04-11T00:08:16.838Z,6.63
2023-04-11T00:10:45.452Z,7.15
2023-04-11T00:13:12.834Z,6.90
2023-04-11T00:15:39.862Z,5.60
2023-04-11T00:18:07.175Z,5.65
2023-04-11T00:20:34.339Z,5.90
2023-04-11T00:23:01.204Z,4.75
2023-04-11T00:25:30.023Z,4.13
2023-04-11T00:27:57.234Z,4.40
2023-04-11T00:30:24.311Z,4.13
2023-04-11T00:32:51.299Z,3.83
2023-04-11T00:35:18.859Z,4.22
2023-04-11T00:37:46.969Z,3.80
2023-04-11T00:40:16.208Z,4.03
2023-04-11T00:42:43.201Z,4.18
2023-04-11T00:45:10.666Z,5.47
2023-04-11T00:47:37.705Z,5.05
2023-04-11T00:50:05.173Z,4.50
2023-04-11T00:52:32.361Z,4.10
2023-04-11T00:55:01.614Z,4.53
2023-04-11T00:57:30.883Z,4.43
2023-04-11T00:59:59.682Z,4.55
2023-04-11T01:02:26.768Z,3.97
2023-04-11T01:04:54.133Z,4.55
2023-04-11T01:07:23.060Z,4.03
2023-04-11T01:09:51.321Z,4.07
2023-04-11T01:12:18.762Z,4.07
2023-04-11T01:14:47.877Z,4.57
2023-04-11T01:17:15.775Z,5.53
2023-04-11T01:19:43.111Z,3.85
2023-04-11T01:22:11.534Z,3.35
2023-04-11T01:24:38.377Z,3.88
2023-04-11T01:27:06.705Z,3.53
2023-04-11T01:29:33.595Z,4.28
2023-04-11T01:32:00.656Z,2.97
2023-04-11T01:34:29.532Z,3.60
2023-04-11T01:36:56.967Z,3.15
2023-04-11T01:39:23.872Z,2.90
2023-04-11T01:41:51.571Z,3.58
2023-04-11T01:44:20.788Z,3.83
2023-04-11T01:46:47.954Z,3.17
2023-04-11T01:49:15.994Z,4.00
2023-04-11T01:51:43.227Z,3.38
2023-04-11T01:54:10.108Z,3.13
2023-04-11T01:56:38.342Z,3.65
2023-04-11T01:59:05.286Z,3.40
2023-04-11T02:01:32.255Z,3.85
2023-04-11T02:03:59.341Z,3.58
2023-04-11T02:06:27.671Z,3.17
2023-04-11T02:08:55.014Z,3.70
2023-04-11T02:11:22.152Z,3.90
2023-04-11T02:13:49.606Z,3.22
2023-04-11T02:16:18.017Z,3.72
2023-04-11T02:18:45.936Z,3.42
2023-04-11T02:21:12.852Z,4.53
2023-04-11T02:23:39.703Z,5.00
2023-04-11T02:26:06.899Z,3.33
2023-04-11T02:28:34.056Z,3.67
2023-04-11T02:31:01.039Z,4.25
2023-04-11T02:33:27.926Z,4.22
2023-04-11T02:35:54.859Z,4.70
2023-04-11T02:38:21.860Z,3.97
2023-04-11T02:40:48.685Z,4.63
2023-04-11T02:43:16.412Z,4.20
2023-04-11T02:45:43.339Z,4.97
2023-04-11T02:48:12.327Z,5.38
2023-04-11T02:50:43.743Z,4.13
2023-04-11T02:53:11.317Z,4.18
2023-04-11T02:55:44.830Z,6.28
2023-04-11T02:58:17.928Z,4.53
2023-04-11T03:00:46.434Z,4.10
2023-04-11T03:03:13.513Z,4.18
2023-04-11T03:08:12.047Z,4.65
2023-04-11T03:10:44.522Z,4.38
2023-04-11T03:13:12.196Z,5.05
2023-04-11T03:15:39.160Z,4.55
2023-04-11T03:18:08.707Z,7.60
2023-04-11T03:20:38.300Z,5.20
2023-04-11T03:23:06.454Z,4.35
2023-04-11T03:25:33.633Z,4.63
2023-04-11T03:28:04.189Z,4.88
2023-04-11T03:30:31.284Z,5.32
2023-04-11T03:33:01.210Z,5.47
2023-04-11T03:35:29.676Z,6.00
2023-04-11T03:37:57.165Z,5.68
2023-04-11T03:40:24.683Z,4.93
2023-04-11T03:43:04.391Z,5.45
2023-04-11T03:45:33.284Z,5.95
2023-04-11T03:48:02.906Z,5.43
2023-04-11T03:50:44.021Z,6.68
2023-04-11T03:53:12.290Z,5.60
2023-04-11T03:55:42.553Z,6.97
2023-04-11T03:58:11.903Z,6.85
2023-04-11T04:00:41.372Z,6.97
2023-04-11T04:03:09.631Z,6.20
2023-04-11T04:05:38.426Z,6.82
2023-04-11T04:08:05.845Z,6.70
2023-04-11T04:10:47.678Z,6.25
2023-04-11T04:13:15.305Z,7.28
2023-04-11T04:15:51.483Z,6.45
2023-04-11T04:18:22.568Z,6.60
2023-04-11T04:20:50.686Z,6.47
2023-04-11T04:23:19.368Z,7.75
2023-04-11T04:26:02.099Z,6.72
2023-04-11T04:28:31.211Z,8.60
2023-04-11T04:31:02.239Z,7.85
2023-04-11T04:33:35.038Z,7.45
2023-04-11T04:36:10.145Z,8.18
2023-04-11T04:38:38.510Z,8.65
2023-04-11T04:41:14.997Z,8.38
2023-04-11T04:43:45.633Z,8.48
2023-04-11T04:46:23.246Z,8.02
2023-04-11T04:48:51.634Z,8.60
2023-04-11T04:51:18.488Z,9.10
2023-04-11T04:53:45.457Z,8.75
2023-04-11T04:56:12.368Z,9.70
2023-04-11T04:58:42.102Z,10.77
2023-04-11T05:01:12.475Z,8.70
2023-04-11T05:03:39.540Z,8.10
2023-04-11T05:06:14.400Z,8.18
2023-04-11T05:08:43.918Z,9.27
2023-04-11T05:11:11.799Z,8.95
2023-04-11T05:13:38.704Z,8.98
2023-04-11T05:16:06.898Z,7.93
2023-04-11T05:18:33.860Z,8.90
2023-04-11T05:21:02.086Z,8.32
2023-04-11T05:23:35.011Z,8.32
2023-04-11T05:26:03.414Z,9.85
2023-04-11T05:28:32.378Z,9.07
2023-04-11T05:31:00.148Z,8.88
2023-04-11T05:33:27.878Z,7.97
2023-04-11T05:35:55.813Z,8.48
2023-04-11T05:38:23.873Z,8.65
2023-04-11T05:40:50.805Z,8.07
2023-04-11T05:43:19.343Z,7.05
2023-04-11T05:45:48.023Z,8.45
2023-04-11T05:48:17.564Z,8.23
2023-04-11T05:50:44.478Z,8.63
2023-04-11T05:53:11.292Z,8.18
2023-04-11T05:55:38.571Z,7.32
2023-04-11T05:58:05.450Z,8.73
2023-04-11T06:00:32.920Z,7.35
2023-04-11T06:03:00.403Z,7.57
2023-04-11T06:05:31.364Z,7.13
2023-04-11T06:07:59.679Z,7.32
2023-04-11T06:10:27.558Z,7.70
2023-04-11T06:12:54.720Z,7.65
2023-04-11T06:15:23.265Z,6.25
2023-04-11T06:17:50.696Z,7.43
2023-04-11T06:20:17.701Z,7.03
2023-04-11T06:22:46.808Z,6.45
2023-04-11T06:25:14.429Z,6.90
2023-04-11T06:27:41.369Z,6.85
2023-04-11T06:30:09.209Z,6.90
2023-04-11T06:32:36.347Z,7.05
2023-04-11T06:35:03.535Z,8.05
2023-04-11T06:37:30.411Z,7.22
2023-04-11T06:39:58.800Z,5.88
2023-04-11T06:42:26.001Z,6.38
2023-04-11T06:44:53.039Z,6.85
2023-04-11T06:47:20.171Z,6.80
2023-04-11T06:49:47.165Z,7.07
2023-04-11T06:52:13.988Z,6.13
2023-04-11T06:54:40.987Z,6.70
2023-04-11T06:57:10.164Z,5.80
2023-04-11T06:59:37.267Z,5.60
2023-04-11T07:02:04.211Z,6.32
2023-04-11T07:04:31.393Z,6.18
2023-04-11T07:06:58.324Z,5.22
2023-04-11T07:09:25.373Z,6.32
2023-04-11T07:11:52.241Z,6.07
2023-04-11T07:14:19.344Z,6.20
2023-04-11T07:16:46.299Z,5.90
2023-04-11T07:19:13.347Z,5.63
2023-04-11T07:21:40.196Z,6.15
2023-04-11T07:24:07.222Z,6.38
2023-04-11T07:26:35.959Z,8.32
2023-04-11T07:29:02.838Z,7.55
2023-04-11T07:31:29.664Z,6.80
2023-04-11T07:33:57.037Z,6.43
2023-04-11T07:36:24.001Z,5.88
2023-04-11T07:38:52.251Z,8.07
2023-04-11T07:41:19.230Z,7.38
2023-04-11T07:43:46.066Z,6.93
2023-04-11T07:46:15.135Z,7.70
2023-04-11T07:48:42.973Z,8.82
2023-04-11T07:51:09.920Z,7.07
2023-04-11T07:53:36.843Z,8.65
2023-04-11T07:56:05.023Z,7.90
2023-04-11T07:58:32.128Z,7.82
2023-04-11T08:00:59.128Z,8.60
2023-04-11T08:03:27.014Z,8.88
2023-04-11T08:05:54.271Z,7.45
2023-04-11T08:08:21.546Z,9.63
2023-04-11T08:10:51.454Z,8.27
2023-04-11T08:13:18.922Z,8.23
2023-04-11T08:15:45.813Z,8.90
2023-04-11T08:18:12.759Z,8.73
2023-04-11T08:20:40.855Z,8.43
2023-04-11T08:23:09.512Z,8.55
2023-04-11T08:25:36.851Z,9.23
2023-04-11T08:28:05.217Z,8.50
2023-04-11T08:30:32.451Z,7.57
2023-04-11T08:32:59.497Z,9.25
2023-04-11T08:35:26.511Z,10.13
2023-04-11T08:37:54.733Z,7.93
2023-04-11T08:40:21.923Z,7.38
2023-04-11T08:42:49.282Z,8.07
2023-04-11T08:45:16.137Z,8.68
2023-04-11T08:47:45.294Z,7.70
2023-04-11T08:50:12.735Z,7.72
2023-04-11T08:52:40.156Z,7.07
2023-04-11T08:55:07.371Z,8.18
2023-04-11T08:57:34.984Z,7.63
2023-04-11T09:00:14.251Z,7.70
2023-04-11T09:03:03.599Z,7.88
2023-04-11T09:05:31.441Z,7.65
2023-04-11T09:08:03.421Z,6.60
2023-04-11T09:10:30.410Z,8.02
2023-04-11T09:12:57.497Z,8.27
2023-04-11T09:15:27.703Z,7.10
2023-04-11T09:17:56.625Z,6.80
2023-04-11T09:20:34.229Z,8.48
2023-04-11T09:23:01.179Z,8.23
2023-04-11T09:25:28.118Z,7.82
2023-04-11T09:28:09.699Z,7.20
2023-04-11T09:30:37.089Z,6.90
2023-04-11T09:33:18.570Z,6.80
2023-04-11T09:35:48.149Z,7.35
2023-04-11T09:38:26.885Z,6.80
2023-04-11T09:40:53.895Z,8.57
2023-04-11T09:43:20.757Z,5.88
2023-04-11T09:45:54.156Z,6.38
2023-04-11T09:48:29.251Z,6.57
2023-04-11T09:51:05.932Z,7.97
2023-04-11T09:53:36.074Z,8.82
2023-04-11T09:56:03.852Z,7.57
2023-04-11T09:58:32.403Z,7.88
2023-04-11T10:01:04.479Z,8.77
2023-04-11T10:03:38.567Z,7.50
2023-04-11T10:06:14.242Z,7.80
2023-04-11T10:08:42.517Z,6.05
2023-04-11T10:11:11.458Z,7.38
2023-04-11T10:13:49.174Z,7.32
2023-04-11T10:16:22.296Z,6.95
2023-04-11T10:18:55.328Z,7.38
2023-04-11T10:21:34.154Z,6.85
2023-04-11T10:24:08.841Z,8.43
2023-04-11T10:27:03.664Z,6.38
2023-04-11T10:29:33.067Z,6.88
2023-04-11T10:32:09.875Z,6.97
2023-04-11T10:34:40.882Z,7.05
2023-04-11T10:37:12.145Z,7.60
2023-04-11T10:40:12.050Z,9.70
2023-04-11T10:42:43.324Z,7.28
2023-04-11T10:45:21.637Z,6.80
2023-04-11T10:47:57.389Z,8.38
2023-04-11T10:50:27.429Z,7.57
2023-04-11T10:52:55.416Z,6.63
2023-04-11T10:55:23.293Z,6.57
2023-04-11T10:58:22.240Z,8.40
2023-04-11T11:00:52.648Z,6.32
2023-04-11T11:05:57.451Z,7.60
2023-04-11T11:08:30.529Z,7.40
2023-04-11T11:11:02.624Z,6.45
2023-04-11T11:13:52.922Z,6.80
2023-04-11T11:16:21.854Z,6.85
2023-04-11T11:18:51.039Z,6.85
2023-04-11T11:21:27.639Z,6.47
2023-04-11T11:24:00.014Z,6.10
2023-04-11T11:26:39.911Z,5.88
2023-04-11T11:29:08.129Z,7.72
2023-04-11T11:31:42.325Z,6.93
2023-04-11T11:34:23.089Z,7.55
2023-04-11T11:36:51.202Z,7.47
2023-04-11T11:39:19.074Z,6.30
2023-04-11T11:41:47.760Z,6.60
2023-04-11T11:44:30.343Z,8.45
2023-04-11T11:47:17.117Z,8.57
2023-04-11T11:49:51.309Z,8.57
2023-04-11T11:52:40.462Z,9.90
2023-04-11T11:55:11.442Z,8.10
2023-04-11T11:57:45.185Z,7.72
2023-04-11T12:00:13.114Z,8.73
2023-04-11T12:02:42.342Z,6.15
2023-04-11T12:05:11.750Z,6.50
2023-04-11T12:07:39.672Z,5.22
2023-04-11T12:10:09.241Z,5.28
2023-04-11T12:12:37.725Z,5.57
2023-04-11T12:15:14.843Z,5.65
2023-04-11T12:17:42.935Z,5.65
2023-04-11T12:20:13.278Z,6.80
2023-04-11T12:25:16.279Z,5.78
2023-04-11T12:27:44.957Z,5.72
2023-04-11T12:30:17.128Z,6.53
2023-04-11T12:32:45.118Z,6.63
2023-04-11T12:35:12.992Z,5.93
2023-04-11T12:37:39.850Z,6.88
2023-04-11T12:40:10.950Z,6.15
2023-04-11T12:42:55.257Z,5.00
2023-04-11T12:45:24.285Z,7.40
2023-04-11T12:47:51.312Z,7.55
2023-04-11T12:50:18.416Z,6.78
2023-04-11T12:52:45.421Z,6.95
2023-04-11T12:55:13.508Z,6.68
2023-04-11T12:57:41.477Z,7.55
2023-04-11T13:00:10.616Z,7.30
2023-04-11T13:02:42.895Z,9.52
2023-04-11T13:05:14.109Z,7.20
2023-04-11T13:07:41.522Z,5.72
2023-04-11T13:10:08.794Z,5.47
2023-04-11T13:12:41.178Z,6.50
2023-04-11T13:15:09.857Z,6.95
2023-04-11T13:17:37.124Z,6.55
2023-04-11T13:20:08.072Z,6.65
2023-04-11T13:22:34.999Z,6.70
2023-04-11T13:25:01.822Z,6.40
2023-04-11T13:27:28.703Z,6.45
2023-04-11T13:29:55.499Z,8.32
2023-04-11T13:32:22.356Z,6.40
2023-04-11T13:34:49.254Z,6.30
2023-04-11T13:37:16.079Z,6.80
2023-04-11T13:39:42.951Z,6.68
2023-04-11T13:42:11.669Z,6.57
2023-04-11T13:44:38.463Z,6.75
2023-04-11T13:47:05.535Z,6.50
2023-04-11T13:49:32.382Z,7.03
2023-04-11T13:51:59.218Z,6.63
2023-04-11T13:54:26.196Z,7.25
2023-04-11T13:56:53.074Z,7.35
2023-04-11T13:59:19.866Z,5.97
2023-04-11T14:01:46.798Z,6.65
2023-04-11T14:04:13.870Z,6.28
2023-04-11T14:06:40.950Z,6.10
2023-04-11T14:09:08.076Z,6.97
2023-04-11T14:11:36.050Z,6.57
2023-04-11T14:14:02.851Z,7.00
2023-04-11T14:16:29.675Z,6.03
2023-04-11T14:18:56.546Z,6.45
2023-04-11T14:21:23.403Z,8.27
2023-04-11T14:23:50.551Z,7.15
2023-04-11T14:26:17.385Z,6.90
2023-04-11T14:28:44.264Z,7.32
2023-04-11T14:31:11.190Z,7.15
2023-04-11T14:33:38.130Z,7.22
2023-04-11T14:36:05.313Z,7.57
2023-04-11T14:38:32.103Z,9.32
2023-04-11T14:40:58.994Z,8.00
2023-04-11T14:43:25.834Z,9.30
2023-04-11T14:45:57.403Z,7.10
2023-04-11T14:48:26.373Z,7.43
2023-04-11T14:50:54.791Z,7.38
2023-04-11T14:53:25.474Z,6.85
2023-04-11T14:55:52.372Z,6.78
2023-04-11T14:58:19.184Z,7.18
2023-04-11T15:00:46.006Z,8.85
2023-04-11T15:03:13.108Z,7.53
2023-04-11T15:05:40.388Z,7.65
2023-04-11T15:08:08.166Z,8.07
2023-04-11T15:10:35.092Z,8.85
2023-04-11T15:13:02.105Z,9.55
2023-04-11T15:15:28.998Z,7.75
2023-04-11T15:18:18.741Z,8.80
2023-04-11T15:20:45.551Z,9.15
2023-04-11T15:23:12.343Z,9.63
2023-04-11T15:25:39.170Z,9.63
2023-04-11T15:28:06.041Z,9.90
2023-04-11T15:30:32.823Z,8.05
2023-04-11T15:32:59.643Z,8.32
2023-04-11T15:35:26.459Z,8.13
2023-04-11T15:37:53.492Z,7.80
2023-04-11T15:40:20.473Z,8.80
2023-04-11T15:42:47.291Z,8.65
2023-04-11T15:45:14.086Z,8.20
2023-04-11T15:47:41.108Z,9.45
2023-04-11T15:50:08.232Z,8.63
2023-04-11T15:52:35.012Z,8.80
2023-04-11T15:55:01.871Z,8.75
2023-04-11T15:57:28.674Z,9.43
2023-04-11T15:59:55.951Z,11.38
2023-04-11T16:02:23.091Z,9.23
2023-04-11T16:04:52.152Z,8.68
2023-04-11T16:07:23.091Z,9.10
2023-04-11T16:09:50.059Z,11.00
2023-04-11T16:12:16.901Z,10.77
2023-04-11T16:14:45.723Z,10.15
2023-04-11T16:17:12.980Z,10.43
2023-04-11T16:19:39.748Z,10.55
2023-04-11T16:22:06.610Z,10.18
2023-04-11T16:24:33.839Z,10.57
2023-04-11T16:27:01.073Z,9.50
2023-04-11T16:29:28.069Z,9.85
2023-04-11T16:31:55.427Z,10.18
2023-04-11T16:34:22.259Z,10.45
2023-04-11T16:36:49.090Z,11.32
2023-04-11T16:39:15.906Z,9.75
2023-04-11T16:41:42.719Z,10.20
2023-04-11T16:44:11.523Z,10.20
2023-04-11T16:46:39.576Z,10.43
2023-04-11T16:49:06.437Z,11.65
2023-04-11T16:51:33.679Z,10.20
2023-04-11T16:54:02.335Z,12.20
2023-04-11T16:56:29.382Z,11.05
2023-04-11T16:58:56.225Z,9.38
2023-04-11T17:01:23.186Z,9.02
2023-04-11T17:03:52.342Z,9.98
2023-04-11T17:06:19.612Z,9.52
2023-04-11T17:08:46.475Z,10.10
2023-04-11T17:11:13.581Z,9.75
2023-04-11T17:13:45.769Z,9.75
2023-04-11T17:16:13.691Z,9.77
2023-04-11T17:18:41.011Z,9.98
2023-04-11T17:21:07.967Z,9.95
2023-04-11T17:23:42.910Z,11.23
2023-04-11T17:26:11.182Z,12.15
2023-04-11T17:28:39.656Z,10.38
2023-04-11T17:31:14.379Z,10.70
2023-04-11T17:33:41.863Z,11.30
2023-04-11T17:36:10.783Z,10.73
2023-04-11T17:38:38.659Z,10.30
2023-04-11T17:41:14.502Z,11.52
2023-04-11T17:43:42.598Z,10.57
2023-04-11T17:46:09.706Z,10.68
2023-04-11T17:48:36.787Z,10.35
2023-04-11T17:51:05.722Z,10.50
2023-04-11T17:53:33.053Z,10.40
2023-04-11T17:56:04.557Z,11.27
2023-04-11T17:58:31.888Z,11.02
2023-04-11T18:00:58.762Z,11.93
2023-04-11T18:03:26.329Z,10.68
2023-04-11T18:05:54.637Z,10.57
2023-04-11T18:08:29.848Z,12.18
2023-04-11T18:11:04.316Z,12.48
2023-04-11T18:13:31.700Z,10.43
2023-04-11T18:15:58.712Z,11.43
2023-04-11T18:18:25.972Z,11.45
2023-04-11T18:20:52.906Z,12.00
2023-04-11T18:23:19.712Z,11.32
2023-04-11T18:25:46.548Z,12.15
2023-04-11T18:28:13.349Z,12.55
2023-04-11T18:30:40.310Z,12.73
2023-04-11T18:33:07.202Z,13.30
2023-04-11T18:35:34.010Z,13.15
2023-04-11T18:38:00.989Z,11.13
2023-04-11T18:40:28.379Z,11.93
2023-04-11T18:42:56.733Z,10.75
2023-04-11T18:45:25.821Z,12.52
2023-04-11T18:47:53.062Z,11.57
2023-04-11T18:50:20.422Z,11.18
2023-04-11T18:52:51.999Z,12.57
2023-04-11T18:55:21.853Z,12.38
2023-04-11T18:57:49.653Z,12.00
2023-04-11T19:00:20.491Z,13.20
2023-04-11T19:02:50.207Z,12.55
2023-04-11T19:05:18.223Z,12.80
2023-04-11T19:07:46.020Z,13.38
2023-04-11T19:10:12.964Z,12.52
2023-04-11T19:12:40.412Z,15.38
2023-04-11T19:15:08.905Z,15.88
2023-04-11T19:17:36.707Z,14.60
2023-04-11T19:20:13.283Z,16.38
2023-04-11T19:22:43.229Z,17.50
2023-04-11T19:25:11.357Z,16.85
2023-04-11T19:27:42.471Z,16.55
2023-04-11T19:30:11.358Z,17.23
2023-04-11T19:32:40.913Z,17.35
2023-04-11T19:35:10.459Z,17.40
2023-04-11T19:37:37.685Z,18.08
2023-04-11T19:40:11.110Z,18.67
2023-04-11T19:42:39.835Z,19.40
2023-04-11T19:45:09.271Z,18.35
2023-04-11T19:47:36.367Z,19.63
2023-04-11T19:50:03.347Z,18.75
2023-04-11T19:52:30.179Z,17.60
2023-04-11T19:54:57.100Z,19.30
2023-04-11T19:57:26.430Z,21.20
2023-04-11T19:59:53.454Z,18.00
2023-04-11T20:02:21.214Z,19.30
2023-04-11T20:04:48.199Z,18.02
2023-04-11T20:07:16.324Z,19.10
2023-04-11T20:09:43.189Z,18.98
2023-04-11T20:12:10.027Z,18.65
2023-04-11T20:14:38.020Z,19.08
2023-04-11T20:17:06.083Z,19.17
2023-04-11T20:19:33.278Z,19.65
2023-04-11T20:22:01.248Z,17.50
2023-04-11T20:24:28.247Z,19.42
2023-04-11T20:26:57.058Z,20.15
2023-04-11T20:29:32.737Z,16.95
2023-04-11T20:32:00.070Z,18.48
2023-04-11T20:34:26.955Z,20.50
2023-04-11T20:36:53.914Z,19.58
2023-04-11T20:39:20.723Z,19.40
2023-04-11T20:41:49.635Z,18.05
2023-04-11T20:44:21.258Z,18.48
2023-04-11T20:46:48.208Z,18.80
2023-04-11T20:49:18.204Z,16.48
2023-04-11T20:51:48.310Z,18.92
2023-04-11T20:54:15.543Z,17.67
2023-04-11T20:56:42.870Z,20.92
2023-04-11T20:59:09.714Z,17.63
2023-04-11T21:01:36.632Z,17.17
2023-04-11T21:04:04.188Z,17.63
2023-04-11T21:06:33.860Z,17.48
2023-04-11T21:09:02.585Z,15.23
2023-04-11T21:11:29.442Z,16.45
2023-04-11T21:13:56.534Z,16.45
2023-04-11T21:16:23.848Z,16.67
2023-04-11T21:18:50.667Z,16.45
2023-04-11T21:21:17.456Z,16.38
2023-04-11T21:23:44.273Z,15.80
2023-04-11T21:26:11.866Z,16.10
2023-04-11T21:28:38.828Z,17.20
2023-04-11T21:31:05.987Z,16.00
2023-04-11T21:33:32.834Z,16.90
2023-04-11T21:35:59.645Z,16.60
2023-04-11T21:38:26.507Z,15.93
2023-04-11T21:40:53.305Z,16.70
2023-04-11T21:43:20.212Z,15.73
2023-04-11T21:45:47.033Z,17.10
2023-04-11T21:48:13.943Z,16.88
2023-04-11T21:50:40.976Z,18.13
2023-04-11T21:53:07.834Z,16.65
2023-04-11T21:55:34.695Z,17.13
2023-04-11T21:58:01.589Z,19.02
2023-04-11T22:00:28.389Z,18.42
2023-04-11T22:02:55.514Z,18.20
2023-04-11T22:05:22.830Z,16.10
2023-04-11T22:07:50.794Z,17.80
2023-04-11T22:10:22.966Z,16.92
2023-04-11T22:12:53.754Z,17.52
2023-04-11T22:15:20.890Z,17.50
2023-04-11T22:17:50.842Z,19.60
2023-04-11T22:22:45.420Z,18.10
2023-04-11T22:25:12.344Z,18.33
2023-04-11T22:27:39.169Z,17.98
2023-04-11T22:30:07.419Z,17.35
2023-04-11T22:32:34.585Z,17.67
2023-04-11T22:35:01.557Z,18.17
2023-04-11T22:37:28.374Z,18.60
2023-04-11T22:39:55.218Z,16.75
2023-04-11T22:42:22.063Z,16.70
2023-04-11T22:44:48.888Z,18.17
2023-04-11T22:47:16.454Z,16.88
2023-04-11T22:49:45.015Z,17.08
2023-04-11T22:52:15.594Z,17.73
2023-04-11T22:57:10.041Z,15.48
2023-04-11T22:59:36.960Z,18.08
2023-04-11T23:02:03.958Z,16.70
2023-04-11T23:04:32.124Z,16.60
2023-04-11T23:06:59.302Z,16.60
2023-04-11T23:09:27.095Z,16.13
2023-04-11T23:11:53.898Z,17.00
2023-04-11T23:14:22.301Z,15.52
2023-04-11T23:16:49.292Z,16.95
2023-04-11T23:19:17.164Z,16.77
2023-04-11T23:21:44.673Z,15.13
2023-04-11T23:24:11.445Z,14.98
2023-04-11T23:26:38.236Z,14.10
2023-04-11T23:29:05.010Z,13.80
2023-04-11T23:31:32.595Z,13.65
2023-04-11T23:34:00.625Z,14.70
2023-04-11T23:36:28.074Z,13.65
2023-04-11T23:38:55.072Z,14.30
2023-04-11T23:41:21.989Z,13.63
2023-04-11T23:43:48.949Z,13.18
2023-04-11T23:46:18.051Z,15.82
2023-04-11T23:48:46.897Z,13.15
2023-04-11T23:51:14.143Z,14.02
2023-04-11T23:53:42.476Z,13.90
2023-04-11T23:56:09.680Z,13.32
2023-04-11T23:58:37.475Z,14.07
